Grayling, MI

03:54 PM EDT on Oktober 21, 2014 (GMT -0400)
Grayling | Change Station
CLOSE
Current Station
Airport
Location: Grayling,
Elevation: 1158 ft
Nearby Weather Stations

Elev 1158 ft 44.68 °N, 84.73 °W | Updated 19 minutes ago

Klart
Klart
50 °F
Feels Like 50 °F
N
8
Vind Växlande Vind from Nordlig
Gusts 16 miles/tim

Idag
High -- | Low -- °F
--% Chance of Precip.
Yesterday
High -- | Low -- °F
Precip. -- tum
8:02 AM 6:44 PM
Fjärde kvarteret, 4% visible
Lufttryck 30.16 tum
Sikt 10.0 miles
Molnigt Klart
Daggpunkt 24 °F
Luftfuktighet 37%
Rainfall 0.00 tum
Snow Depth Not available.
UV 2 out of 12
Pollen 1.40 out of 12
Ozon God
PM2.5 God
Flu Activity Sporadic
METAR KGOV 211935Z AUTO 36007G14KT 340V040 10SM CLR 10/M04 A3016 RMK AO2 T00981044

More Conditions Fewer Conditions

Lufttryck 30.16 tum
Sikt 10.0 miles
Molnigt Klart
Daggpunkt 24 °F
Luftfuktighet 37%
Rainfall 0.00 tum
Snow Depth Not available.
UV 2 out of 12
Pollen 1.40 out of 12
Ozon God
PM2.5 God
Flu Activity Sporadic
METAR KGOV 211935Z AUTO 36007G14KT 340V040 10SM CLR 10/M04 A3016 RMK AO2 T00981044

More Conditions Fewer Conditions

Nowcast | as of 3:00 PM EDT on October 21, 2014

At 4 PM...mostly clear. Temperature 48. North winds 9 mph. At 6 PM...mostly clear. Temperature 46. North winds 7 mph. At 8 PM...mostly clear. Temperature 40. Northeast winds 6 mph. At 10 PM...mostly clear. Temperature 36. Light winds.

×

10-Day Weather Forecast

Almanac

Astronomi

Oct. 21, 2014 Rise Set
Actual Time 8:02 AM EDT 6:44 PM EDT
Civil Twilight 7:32 AM EDT 7:13 PM EDT
Nautical Twilight 6:58 AM EDT 7:47 PM EDT
Astronomical Twilight 6:24 AM EDT 8:21 PM EDT
Månen 5:40 AM EDT 5:42 PM EDT
Length Of Visible Light 11h 41m
Dagens längd
10h 42m
Tomorrow will be 2m 55s shorter.
Fjärde kvarteret, 4% of the Moon is Illuminated
Idag
Fjärde kvarteret
Oct 23
New
Oct 30
Första kvarteret
Nov 6
Fullmåne
Nov 14
Sista kvarteret

Today's Extremes

State Highs State Lows

Community

WunderPhotos

Upload Photos

1,763,754 photos uploaded!

Nearby

Air Quality

  Air Quality AQ Index Pollutant
Yesterday God
PM2.5
Yesterday God
OZONE
Current God
OZONE
Current God
PM2.5
Tisdag God
PM2.5
Onsdag God
PM2.5
Torsdag God
PM2.5
Fredag God
PM2.5
Lördag God
PM2.5

Snödjup

Station Depth Elevation
No new snow has been reported.

Earthquake Activity

Stad Distance Mag. Time & Date
No recent earthquake activity has been reported nearby.
Minimum magnitude displayed is 2.5.

Coastal Water Temperatures

Plats Temperatur
No Stations Reporting

Nearby Weather Stations